createdAt,value
2017-03-22T00:00:32.804Z,0
2017-03-22T00:01:32.829Z,0
2017-03-22T00:02:32.250Z,0
2017-03-22T00:03:32.870Z,0
2017-03-22T00:04:47.506Z,0
2017-03-22T00:05:32.902Z,0
2017-03-22T00:06:32.922Z,0
2017-03-22T00:08:32.663Z,0
2017-03-22T00:09:32.980Z,0
2017-03-22T00:10:32.999Z,0
2017-03-22T00:11:47.635Z,0
2017-03-22T00:12:47.654Z,0
2017-03-22T00:13:33.065Z,0
2017-03-22T00:14:33.082Z,0
2017-03-22T00:15:32.791Z,0
2017-03-22T00:16:32.821Z,0
2017-03-22T00:17:47.749Z,0
2017-03-22T00:18:33.157Z,0
2017-03-22T00:19:33.184Z,0
2017-03-22T00:20:47.805Z,0
2017-03-22T00:21:32.906Z,0
2017-03-22T00:22:33.235Z,0
2017-03-22T00:23:33.253Z,0
2017-03-22T00:24:32.968Z,0
2017-03-22T00:25:33.288Z,0
2017-03-22T00:26:33.405Z,0
2017-03-22T00:27:33.332Z,0
2017-03-22T00:28:33.354Z,0
2017-03-22T00:29:47.979Z,0
2017-03-22T00:30:33.411Z,0
2017-03-22T00:31:33.400Z,0
2017-03-22T00:32:33.427Z,0
2017-03-22T00:34:33.470Z,0
2017-03-22T00:35:33.179Z,0
2017-03-22T00:36:48.145Z,0
2017-03-22T00:37:33.214Z,0
2017-03-22T00:38:33.237Z,0
2017-03-22T00:39:33.555Z,0
2017-03-22T00:40:33.268Z,0
2017-03-22T00:41:33.596Z,0
2017-03-22T00:42:33.312Z,0
2017-03-22T00:43:33.327Z,0
2017-03-22T00:44:33.654Z,0
2017-03-22T00:45:33.701Z,0
2017-03-22T00:46:33.694Z,0
2017-03-22T00:47:33.712Z,0
2017-03-22T00:48:33.731Z,0
2017-03-22T00:49:33.750Z,0
2017-03-22T00:51:33.785Z,0
2017-03-22T00:52:48.420Z,0
2017-03-22T00:53:33.826Z,0
2017-03-22T00:54:33.841Z,0
2017-03-22T00:55:33.895Z,0
2017-03-22T00:56:33.878Z,0
2017-03-22T00:57:33.900Z,0
2017-03-22T00:58:48.535Z,0
2017-03-22T00:59:33.635Z,0
2017-03-22T01:00:48.569Z,0
2017-03-22T01:01:33.974Z,0
2017-03-22T01:02:33.720Z,0
2017-03-22T01:03:48.325Z,0
2017-03-22T01:05:34.049Z,0
2017-03-22T01:06:33.766Z,0
2017-03-22T01:07:48.705Z,0
2017-03-22T01:08:34.110Z,0
2017-03-22T01:09:34.126Z,0
2017-03-22T01:10:34.144Z,0
2017-03-22T01:11:34.162Z,0
2017-03-22T01:12:34.178Z,0
2017-03-22T01:13:34.207Z,0
2017-03-22T01:14:34.224Z,0
2017-03-22T01:15:33.935Z,0
2017-03-22T01:17:48.890Z,0
2017-03-22T01:18:34.297Z,0
2017-03-22T01:19:34.013Z,0
2017-03-22T01:20:34.328Z,0
2017-03-22T01:21:34.362Z,0
2017-03-22T01:22:34.373Z,0
2017-03-22T01:23:34.390Z,0
2017-03-22T01:24:34.414Z,0
2017-03-22T01:25:34.426Z,0
2017-03-22T01:26:34.446Z,0
2017-03-22T01:27:34.159Z,0
2017-03-22T01:28:34.483Z,0
2017-03-22T01:29:49.116Z,0
2017-03-22T01:30:34.520Z,0
2017-03-22T01:31:34.244Z,0
2017-03-22T01:32:34.557Z,0
2017-03-22T01:33:49.193Z,0
2017-03-22T01:34:49.209Z,0
2017-03-22T01:35:34.614Z,0
2017-03-22T01:36:34.627Z,0
2017-03-22T01:37:34.650Z,0
2017-03-22T01:38:34.669Z,0
2017-03-22T01:39:49.300Z,0
2017-03-22T01:40:34.699Z,0
2017-03-22T01:41:34.721Z,0
2017-03-22T01:42:34.736Z,0
2017-03-22T01:43:49.377Z,0
2017-03-22T01:44:49.394Z,0
2017-03-22T01:45:49.411Z,0
2017-03-22T01:46:34.809Z,0
2017-03-22T01:47:34.835Z,0
2017-03-22T01:49:34.871Z,0
2017-03-22T01:50:34.894Z,0
2017-03-22T01:51:34.597Z,0
2017-03-22T01:52:34.927Z,0
2017-03-22T01:53:34.640Z,0
2017-03-22T01:54:34.962Z,0
2017-03-22T01:55:49.594Z,0
2017-03-22T01:57:35.015Z,0
2017-03-22T01:58:34.736Z,0
2017-03-22T01:59:35.054Z,0
2017-03-22T02:00:35.065Z,0
2017-03-22T02:01:49.705Z,0
2017-03-22T02:02:35.104Z,0
2017-03-22T02:03:35.128Z,0
2017-03-22T02:04:35.150Z,0
2017-03-22T02:05:35.162Z,0
2017-03-22T02:06:35.181Z,0
2017-03-22T02:07:35.200Z,0
2017-03-22T02:08:35.228Z,0
2017-03-22T02:09:35.238Z,0
2017-03-22T02:10:35.255Z,0
2017-03-22T02:11:49.881Z,0
2017-03-22T02:12:35.288Z,0
2017-03-22T02:13:35.310Z,0
2017-03-22T02:14:35.326Z,0
2017-03-22T02:15:35.346Z,0
2017-03-22T02:16:35.363Z,0
2017-03-22T02:17:35.382Z,0
2017-03-22T02:18:35.399Z,0
2017-03-22T02:19:35.422Z,0
2017-03-22T02:20:35.430Z,0
2017-03-22T02:21:35.146Z,0
2017-03-22T02:22:35.466Z,0
2017-03-22T02:23:35.492Z,0
2017-03-22T02:24:35.603Z,0
2017-03-22T02:25:35.220Z,0
2017-03-22T02:27:50.176Z,0
2017-03-22T02:28:35.580Z,0
2017-03-22T02:29:35.595Z,0
2017-03-22T02:30:35.611Z,0
2017-03-22T02:31:35.626Z,0
2017-03-22T02:32:35.649Z,0
2017-03-22T02:33:35.397Z,0
2017-03-22T02:34:35.683Z,0
2017-03-22T02:35:35.701Z,0
2017-03-22T02:36:35.416Z,0
2017-03-22T02:37:50.052Z,0
2017-03-22T02:38:50.079Z,0
2017-03-22T02:40:35.495Z,0
2017-03-22T02:41:35.812Z,0
2017-03-22T02:42:50.142Z,0
2017-03-22T02:43:35.892Z,0
2017-03-22T02:44:35.871Z,0
2017-03-22T02:45:35.889Z,0
2017-03-22T02:46:35.599Z,0
2017-03-22T02:47:35.973Z,0
2017-03-22T02:48:50.249Z,0
2017-03-22T02:49:35.954Z,0
2017-03-22T02:50:35.980Z,0
2017-03-22T02:51:50.619Z,0
2017-03-22T02:52:50.620Z,0
2017-03-22T02:53:50.653Z,0
2017-03-22T02:54:36.045Z,0
2017-03-22T02:55:50.673Z,0
2017-03-22T02:56:36.080Z,0
2017-03-22T02:57:36.099Z,0
2017-03-22T02:58:35.816Z,0
2017-03-22T02:59:36.132Z,0
2017-03-22T03:00:36.185Z,0
2017-03-22T03:01:36.169Z,0
2017-03-22T03:02:36.186Z,0
2017-03-22T03:03:36.209Z,0
2017-03-22T03:04:36.222Z,0
2017-03-22T03:05:36.240Z,0
2017-03-22T03:06:36.260Z,0
2017-03-22T03:07:36.278Z,0
2017-03-22T03:08:50.911Z,0
2017-03-22T03:10:36.027Z,0
2017-03-22T03:11:36.344Z,0
2017-03-22T03:12:36.366Z,0
2017-03-22T03:13:36.386Z,0
2017-03-22T03:14:51.013Z,0
2017-03-22T03:15:36.419Z,0
2017-03-22T03:16:36.438Z,0
2017-03-22T03:17:36.494Z,0
2017-03-22T03:18:51.090Z,0
2017-03-22T03:19:36.489Z,0
2017-03-22T03:20:36.509Z,0
2017-03-22T03:21:51.172Z,0
2017-03-22T03:22:36.240Z,0
2017-03-22T03:23:50.876Z,0
2017-03-22T03:24:36.578Z,0
2017-03-22T03:25:36.292Z,0
2017-03-22T03:26:36.614Z,0
2017-03-22T03:27:36.635Z,0
2017-03-22T03:28:36.661Z,0
2017-03-22T03:29:36.369Z,0
2017-03-22T03:30:51.300Z,0
2017-03-22T03:31:36.701Z,0
2017-03-22T03:32:36.720Z,0
2017-03-22T03:33:36.742Z,0
2017-03-22T03:34:36.755Z,0
2017-03-22T03:35:51.393Z,0
2017-03-22T03:36:36.789Z,0
2017-03-22T03:37:36.810Z,0
2017-03-22T03:38:36.841Z,0
2017-03-22T03:39:36.845Z,0
2017-03-22T03:40:36.863Z,0
2017-03-22T03:41:36.582Z,0
2017-03-22T03:42:36.899Z,0
2017-03-22T03:43:36.935Z,0
2017-03-22T03:44:36.934Z,0
2017-03-22T03:45:36.954Z,0
2017-03-22T03:46:51.583Z,0
2017-03-22T03:47:37.031Z,0
2017-03-22T03:48:37.014Z,0
2017-03-22T03:49:37.022Z,0
2017-03-22T03:50:37.040Z,0
2017-03-22T03:51:37.210Z,0
2017-03-22T03:52:37.080Z,0
2017-03-22T03:54:51.733Z,0
2017-03-22T03:55:51.751Z,0
2017-03-22T03:56:51.463Z,0
2017-03-22T03:57:51.784Z,0
2017-03-22T03:58:37.189Z,0
2017-03-22T03:59:37.209Z,0
2017-03-22T04:01:36.930Z,0
2017-03-22T04:02:51.874Z,0
2017-03-22T04:03:36.971Z,0
2017-03-22T04:04:51.608Z,0
2017-03-22T04:05:37.005Z,0
2017-03-22T04:06:37.024Z,0
2017-03-22T04:07:37.045Z,0
2017-03-22T04:08:37.065Z,0
2017-03-22T04:09:37.384Z,0
2017-03-22T04:11:37.414Z,0
2017-03-22T04:12:37.442Z,0
2017-03-22T04:13:37.455Z,0
2017-03-22T04:15:37.489Z,0
2017-03-22T04:16:37.506Z,0
2017-03-22T04:17:52.148Z,0
2017-03-22T04:18:37.249Z,0
2017-03-22T04:19:37.560Z,0
2017-03-22T04:20:37.586Z,0
2017-03-22T04:21:37.594Z,0
2017-03-22T04:22:37.613Z,0
2017-03-22T04:24:37.649Z,0
2017-03-22T04:25:37.663Z,0
2017-03-22T04:26:51.993Z,0
2017-03-22T04:27:37.400Z,0
2017-03-22T04:28:52.334Z,0
2017-03-22T04:29:52.352Z,0
2017-03-22T04:30:37.753Z,0
2017-03-22T04:31:37.770Z,0
2017-03-22T04:32:37.530Z,0
2017-03-22T04:33:37.811Z,0
2017-03-22T04:34:37.825Z,0
2017-03-22T04:35:37.844Z,0
2017-03-22T04:36:37.860Z,4
2017-03-22T04:37:37.879Z,4
2017-03-22T04:38:37.904Z,0
2017-03-22T04:39:37.608Z,4
2017-03-22T04:41:37.949Z,4
2017-03-22T04:42:37.660Z,4
2017-03-22T04:43:37.992Z,8
2017-03-22T04:44:38.007Z,12
2017-03-22T04:45:38.072Z,16
2017-03-22T04:46:38.038Z,16
2017-03-22T04:47:38.062Z,20
2017-03-22T04:48:38.075Z,20
2017-03-22T04:49:52.706Z,32
2017-03-22T04:50:38.107Z,32
2017-03-22T04:51:38.124Z,40
2017-03-22T04:52:38.144Z,44
2017-03-22T04:53:38.165Z,48
2017-03-22T04:54:38.183Z,52
2017-03-22T04:55:38.194Z,56
2017-03-22T04:56:52.827Z,64
2017-03-22T04:57:38.239Z,68
2017-03-22T04:58:38.263Z,76
2017-03-22T04:59:38.260Z,84
2017-03-22T05:00:38.282Z,92
2017-03-22T05:01:38.301Z,100
2017-03-22T05:02:38.319Z,112
2017-03-22T05:03:38.335Z,124
2017-03-22T05:04:38.047Z,136
2017-03-22T05:05:52.678Z,148
2017-03-22T05:06:38.385Z,160
2017-03-22T05:07:38.406Z,172
2017-03-22T05:08:53.044Z,200
2017-03-22T05:09:38.440Z,220
2017-03-22T05:10:38.460Z,256
2017-03-22T05:11:38.473Z,296
2017-03-22T05:12:38.488Z,340
2017-03-22T05:13:38.511Z,392
2017-03-22T05:14:38.821Z,448
2017-03-22T05:15:37.943Z,508
2017-03-22T05:16:38.256Z,580
2017-03-22T05:17:38.273Z,660
2017-03-22T05:18:38.293Z,744
2017-03-22T05:19:38.608Z,836
2017-03-22T05:20:38.668Z,932
2017-03-22T05:21:52.955Z,1032
2017-03-22T05:22:38.669Z,1096
2017-03-22T05:23:38.683Z,1168
2017-03-22T05:24:38.702Z,1252
2017-03-22T05:25:38.710Z,1340
2017-03-22T05:26:38.731Z,1444
2017-03-22T05:27:53.377Z,1576
2017-03-22T05:28:38.776Z,1640
2017-03-22T05:29:38.786Z,1704
2017-03-22T05:30:53.413Z,1760
2017-03-22T05:31:53.430Z,1800
2017-03-22T05:32:38.842Z,1836
2017-03-22T05:33:38.857Z,1880
2017-03-22T05:34:39.228Z,1912
2017-03-22T05:35:38.585Z,1916
2017-03-22T05:36:38.904Z,1904
2017-03-22T05:37:53.540Z,1872
2017-03-22T05:38:38.939Z,1864
2017-03-22T05:39:38.961Z,1892
2017-03-22T05:40:38.977Z,1980
2017-03-22T05:41:39.000Z,2072
2017-03-22T05:42:39.016Z,2136
2017-03-22T05:44:39.049Z,2220
2017-03-22T05:45:53.675Z,2304
2017-03-22T05:46:39.110Z,2372
2017-03-22T05:47:39.097Z,2516
2017-03-22T05:48:53.731Z,2664
2017-03-22T05:49:39.138Z,2740
2017-03-22T05:51:39.168Z,2992
2017-03-22T05:52:53.802Z,3216
2017-03-22T05:53:38.903Z,3396
2017-03-22T05:54:38.915Z,3616
2017-03-22T05:55:39.236Z,3852
2017-03-22T05:56:39.252Z,4168
2017-03-22T05:57:53.890Z,4388
2017-03-22T05:58:39.301Z,4496
2017-03-22T05:59:39.308Z,4496
2017-03-22T06:00:53.635Z,4600
2017-03-22T06:01:39.339Z,4684
2017-03-22T06:02:39.056Z,4820
2017-03-22T06:03:39.384Z,4956
2017-03-22T06:04:39.397Z,5080
2017-03-22T06:05:39.417Z,5200
2017-03-22T06:06:39.136Z,5336
2017-03-22T06:07:39.459Z,5496
2017-03-22T06:08:39.480Z,6008
2017-03-22T06:09:39.217Z,7320
2017-03-22T06:10:39.513Z,6312
2017-03-22T06:11:54.141Z,7512
2017-03-22T06:12:39.541Z,7704
2017-03-22T06:13:54.174Z,9352
2017-03-22T06:14:39.578Z,8940
2017-03-22T06:15:39.590Z,7944
2017-03-22T06:16:54.227Z,7908
2017-03-22T06:18:39.649Z,8440
2017-03-22T06:19:39.362Z,9612
2017-03-22T06:20:39.691Z,8616
2017-03-22T06:21:54.316Z,10660
2017-03-22T06:22:39.825Z,9204
2017-03-22T06:23:39.444Z,10920
2017-03-22T06:24:54.378Z,13520
2017-03-22T06:25:39.475Z,12288
2017-03-22T06:26:39.796Z,12704
2017-03-22T06:27:39.819Z,12356
2017-03-22T06:28:39.843Z,16288
2017-03-22T06:29:39.553Z,14400
2017-03-22T06:30:39.573Z,15424
2017-03-22T06:31:39.889Z,21184
2017-03-22T06:32:39.920Z,20864
2017-03-22T06:34:39.647Z,21856
2017-03-22T06:36:39.990Z,26400
2017-03-22T06:37:40.029Z,27008
2017-03-22T06:38:40.038Z,34496
2017-03-22T06:39:40.048Z,36288
2017-03-22T06:40:54.687Z,36960
2017-03-22T06:41:40.090Z,33728
2017-03-22T06:42:40.116Z,30624
2017-03-22T06:43:39.838Z,28096
2017-03-22T06:44:39.856Z,23264
2017-03-22T06:45:40.184Z,20576
2017-03-22T06:46:40.201Z,25664
2017-03-22T06:47:40.225Z,23232
2017-03-22T06:49:39.662Z,19456
2017-03-22T06:50:39.986Z,23904
2017-03-22T06:51:40.320Z,23072
2017-03-22T06:52:54.952Z,18976
2017-03-22T06:53:40.058Z,20256
2017-03-22T06:54:40.074Z,15696
2017-03-22T06:55:40.405Z,23520
2017-03-22T06:56:54.738Z,19840
2017-03-22T06:57:40.449Z,25792
2017-03-22T06:58:40.174Z,27040
2017-03-22T06:59:40.187Z,34560
2017-03-22T07:00:40.511Z,42912
2017-03-22T07:01:40.230Z,38560
2017-03-22T07:02:40.260Z,45536
2017-03-22T07:03:40.283Z,48160
2017-03-22T07:04:40.308Z,53216
2017-03-22T07:06:40.651Z,40192
2017-03-22T07:07:40.073Z,48352
2017-03-22T07:08:40.705Z,40096
2017-03-22T07:09:40.733Z,46016
2017-03-22T07:10:40.745Z,46848
2017-03-22T07:11:40.474Z,35872
2017-03-22T07:12:55.416Z,39904
2017-03-22T07:13:40.829Z,45888
2017-03-22T07:14:40.845Z,37856
2017-03-22T07:15:40.267Z,37632
2017-03-22T07:16:40.590Z,40064
2017-03-22T07:17:40.629Z,39808
2017-03-22T07:18:40.950Z,54912
2017-03-22T07:19:40.973Z,46176
2017-03-22T07:20:41.000Z,63680
2017-03-22T07:21:40.719Z,66208
2017-03-22T07:23:55.692Z,64544
2017-03-22T07:24:55.717Z,61120
2017-03-22T07:25:55.741Z,60672
2017-03-22T07:27:55.800Z,65984
2017-03-22T07:28:41.210Z,66176
2017-03-22T07:29:41.236Z,61952
2017-03-22T07:30:41.275Z,56032
2017-03-22T07:31:40.985Z,54496
2017-03-22T07:32:41.020Z,52608
2017-03-22T07:33:41.040Z,60160
2017-03-22T07:34:41.369Z,58272
2017-03-22T07:35:41.097Z,56896
2017-03-22T07:36:41.121Z,56736
2017-03-22T07:37:41.153Z,50976
2017-03-22T07:38:41.489Z,50176
2017-03-22T07:39:56.134Z,42080
2017-03-22T07:40:56.155Z,52288
2017-03-22T07:41:41.569Z,52320
2017-03-22T07:42:41.598Z,41376
2017-03-22T07:43:56.249Z,40256
2017-03-22T07:44:41.657Z,36704
2017-03-22T07:45:41.684Z,36032
2017-03-22T07:46:41.709Z,39136
2017-03-22T07:47:41.441Z,35424
2017-03-22T07:48:41.771Z,39168
2017-03-22T07:49:41.798Z,38720
2017-03-22T07:50:41.818Z,44512
2017-03-22T07:51:41.846Z,44736
2017-03-22T07:52:41.882Z,43680
2017-03-22T07:53:41.912Z,44800
2017-03-22T07:54:41.952Z,47456
2017-03-22T07:55:41.962Z,49952
2017-03-22T07:57:42.018Z,54848
2017-03-22T07:58:42.053Z,52768
2017-03-22T07:59:56.691Z,53600
2017-03-22T08:00:42.102Z,49280
2017-03-22T08:02:56.781Z,50976
2017-03-22T08:03:42.187Z,50336
2017-03-22T08:04:41.909Z,49440
2017-03-22T08:05:42.242Z,49568
2017-03-22T08:06:41.659Z,49568
2017-03-22T08:07:42.297Z,47264
2017-03-22T08:08:42.334Z,47328
2017-03-22T08:09:42.699Z,46432
2017-03-22T08:10:42.381Z,46976
2017-03-22T08:12:42.137Z,48416
2017-03-22T08:13:42.472Z,47936
2017-03-22T08:14:56.813Z,47520
2017-03-22T08:15:57.134Z,46464
2017-03-22T08:17:42.581Z,39840
2017-03-22T08:18:42.606Z,39328
2017-03-22T08:19:56.951Z,48800
2017-03-22T08:20:57.280Z,44800
2017-03-22T08:21:42.691Z,43296
2017-03-22T08:23:42.746Z,46048
2017-03-22T08:25:42.500Z,44832
2017-03-22T08:26:42.827Z,43840
2017-03-22T08:27:57.482Z,43904
2017-03-22T08:28:42.589Z,43392
2017-03-22T08:29:42.609Z,43104
2017-03-22T08:30:42.642Z,40832
2017-03-22T08:31:57.588Z,40384
2017-03-22T08:32:43.002Z,39104
2017-03-22T08:33:43.024Z,38528
2017-03-22T08:34:42.752Z,37664
2017-03-22T08:35:43.082Z,35520
2017-03-22T08:36:42.808Z,36608
2017-03-22T08:37:42.846Z,34816
2017-03-22T08:38:43.164Z,32320
2017-03-22T08:39:43.194Z,31296
2017-03-22T08:41:43.251Z,29216
2017-03-22T08:42:43.282Z,28672
2017-03-22T08:43:43.321Z,27168
2017-03-22T08:44:43.340Z,25120
2017-03-22T08:45:43.372Z,24096
2017-03-22T08:46:43.091Z,24000
2017-03-22T08:47:58.238Z,9280
2017-03-22T08:48:43.450Z,10028
2017-03-22T08:49:43.173Z,12288
2017-03-22T08:50:43.198Z,8184
2017-03-22T08:51:43.535Z,7684
2017-03-22T08:52:43.564Z,7552
2017-03-22T08:53:43.582Z,7292
2017-03-22T08:54:58.234Z,7136
2017-03-22T08:55:43.654Z,7404
2017-03-22T08:56:58.285Z,8660
2017-03-22T08:57:43.701Z,10092
2017-03-22T08:58:43.417Z,23712
2017-03-22T09:00:43.521Z,23808
2017-03-22T09:01:43.798Z,24128
2017-03-22T09:02:58.445Z,24032
2017-03-22T09:03:43.861Z,24064
2017-03-22T09:04:43.887Z,23200
2017-03-22T09:05:43.603Z,23424
2017-03-22T09:06:44.083Z,23840
2017-03-22T09:07:43.956Z,23680
2017-03-22T09:08:43.679Z,23680
2017-03-22T09:09:58.326Z,12940
2017-03-22T09:10:44.049Z,10220
2017-03-22T09:11:44.064Z,15872
2017-03-22T09:12:44.096Z,19392
2017-03-22T09:13:58.431Z,19040
2017-03-22T09:14:44.151Z,18912
2017-03-22T09:15:44.174Z,18944
2017-03-22T09:16:44.198Z,18112
2017-03-22T09:17:43.922Z,18752
2017-03-22T09:18:43.645Z,18464
2017-03-22T09:19:43.974Z,17856
2017-03-22T09:20:44.004Z,16572
2017-03-22T09:21:44.028Z,16560
2017-03-22T09:22:44.057Z,16580
2017-03-22T09:23:44.082Z,15804
2017-03-22T09:24:44.114Z,16304
2017-03-22T09:25:44.137Z,15708
2017-03-22T09:26:44.163Z,15524
2017-03-22T09:27:44.497Z,15668
2017-03-22T09:28:44.523Z,16836
2017-03-22T09:29:44.576Z,17408
2017-03-22T09:31:44.602Z,16816
2017-03-22T09:32:44.627Z,15616
2017-03-22T09:33:44.652Z,16700
2017-03-22T09:34:59.298Z,17248
2017-03-22T09:35:44.708Z,17472
2017-03-22T09:36:44.436Z,17216
2017-03-22T09:37:44.160Z,16888
2017-03-22T09:38:44.484Z,16668
2017-03-22T09:39:44.210Z,16560
2017-03-22T09:40:44.845Z,16464
2017-03-22T09:41:59.490Z,16380
2017-03-22T09:42:44.945Z,16232
2017-03-22T09:43:59.541Z,16108
2017-03-22T09:44:44.651Z,16008
2017-03-22T09:45:44.979Z,15992
2017-03-22T09:46:59.673Z,15656
2017-03-22T09:47:59.655Z,12388
2017-03-22T09:48:59.677Z,14948
2017-03-22T09:49:45.089Z,15216
2017-03-22T09:50:59.735Z,14548
2017-03-22T09:52:44.573Z,15204
2017-03-22T09:53:44.894Z,13588
2017-03-22T09:54:59.847Z,14268
2017-03-22T09:55:45.263Z,15164
2017-03-22T09:56:45.282Z,14636
2017-03-22T09:57:45.318Z,14904
2017-03-22T09:58:45.333Z,14916
2017-03-22T10:00:45.389Z,13684
2017-03-22T10:02:00.048Z,14076
2017-03-22T10:02:45.459Z,13972
2017-03-22T10:04:45.502Z,13964
2017-03-22T10:05:45.525Z,14012
2017-03-22T10:06:59.866Z,12060
2017-03-22T10:07:45.283Z,11320
2017-03-22T10:08:45.302Z,10944
2017-03-22T10:09:45.328Z,13972
2017-03-22T10:10:45.355Z,14420
2017-03-22T10:12:45.730Z,14580
2017-03-22T10:13:45.738Z,14420
2017-03-22T10:14:45.509Z,14484
2017-03-22T10:15:45.489Z,14344
2017-03-22T10:17:00.444Z,13576
2017-03-22T10:17:45.882Z,13960
2017-03-22T10:18:45.871Z,13600
2017-03-22T10:20:45.928Z,13796
2017-03-22T10:21:45.953Z,13536
2017-03-22T10:23:00.605Z,13932
2017-03-22T10:23:46.006Z,13836
2017-03-22T10:24:46.032Z,13800
2017-03-22T10:25:46.060Z,13832
2017-03-22T10:26:45.983Z,13552
2017-03-22T10:27:46.114Z,13736
2017-03-22T10:28:45.534Z,13544
2017-03-22T10:29:45.558Z,13580
2017-03-22T10:30:45.890Z,13404
2017-03-22T10:31:45.918Z,13292
2017-03-22T10:33:00.861Z,13180
2017-03-22T10:33:45.666Z,13300
2017-03-22T10:38:00.995Z,7164
2017-03-22T10:38:46.101Z,11980
2017-03-22T10:39:46.432Z,13368
2017-03-22T10:40:45.851Z,13252
2017-03-22T10:41:46.179Z,13152
2017-03-22T10:42:46.206Z,12908
2017-03-22T10:43:46.537Z,12776
2017-03-22T10:45:00.875Z,12284
2017-03-22T10:45:45.982Z,11912
2017-03-22T10:46:46.306Z,11320
2017-03-22T10:47:46.341Z,10856
2017-03-22T10:48:46.664Z,10460
2017-03-22T10:49:46.082Z,10168
2017-03-22T10:51:01.332Z,9764
2017-03-22T10:51:46.437Z,9432
2017-03-22T10:52:46.764Z,7756
2017-03-22T10:53:46.191Z,7444
2017-03-22T10:54:46.823Z,5992
2017-03-22T10:55:46.891Z,6864
2017-03-22T10:56:46.594Z,7896
2017-03-22T10:57:46.891Z,8136
2017-03-22T10:58:46.920Z,8644
2017-03-22T10:59:46.944Z,8720
2017-03-22T11:01:01.585Z,7456
2017-03-22T11:01:47.023Z,8016
2017-03-22T11:02:46.412Z,8032
2017-03-22T11:03:47.041Z,8252
2017-03-22T11:05:01.686Z,6996
2017-03-22T11:06:01.709Z,7876
2017-03-22T11:06:47.124Z,7948
2017-03-22T11:08:47.168Z,7860
2017-03-22T11:10:01.808Z,7632
2017-03-22T11:10:47.221Z,7460
2017-03-22T11:11:47.240Z,7268
2017-03-22T11:12:47.271Z,7152
2017-03-22T11:13:47.304Z,7024
2017-03-22T11:15:01.936Z,6860
2017-03-22T11:15:47.036Z,6756
2017-03-22T11:16:47.365Z,6620
2017-03-22T11:17:47.389Z,6532
2017-03-22T11:18:47.415Z,6148
2017-03-22T11:20:47.463Z,6008
2017-03-22T11:21:47.486Z,6464
2017-03-22T11:22:47.209Z,6552
2017-03-22T11:24:02.154Z,6740
2017-03-22T11:24:47.564Z,6720
2017-03-22T11:26:02.207Z,6700
2017-03-22T11:26:47.617Z,6916
2017-03-22T11:27:47.635Z,6828
2017-03-22T11:28:47.661Z,6788
2017-03-22T11:29:47.688Z,6520
2017-03-22T11:30:47.709Z,6696
2017-03-22T11:31:47.737Z,6676
2017-03-22T11:32:47.757Z,6708
2017-03-22T11:33:47.782Z,6584
2017-03-22T11:35:02.424Z,6864
2017-03-22T11:35:47.531Z,6476
2017-03-22T11:36:47.897Z,6384
2017-03-22T11:39:02.523Z,6720
2017-03-22T11:39:47.929Z,7024
2017-03-22T11:40:47.957Z,7156
2017-03-22T11:42:02.594Z,7148
2017-03-22T11:42:48.003Z,7328
2017-03-22T11:44:02.687Z,7192
2017-03-22T11:44:48.253Z,7316
2017-03-22T11:45:48.082Z,6916
2017-03-22T11:46:48.100Z,7068
2017-03-22T11:47:48.123Z,6908
2017-03-22T11:49:02.779Z,6964
2017-03-22T11:50:48.204Z,6576
2017-03-22T11:51:48.223Z,6660
2017-03-22T11:52:48.244Z,6396
2017-03-22T11:53:48.271Z,7028
2017-03-22T11:54:48.294Z,6968
2017-03-22T11:55:48.319Z,7188
2017-03-22T11:56:48.344Z,7224
2017-03-22T11:58:02.984Z,7316
2017-03-22T11:58:48.392Z,7140
2017-03-22T11:59:48.416Z,7180
2017-03-22T12:00:48.437Z,7216
2017-03-22T12:01:48.463Z,6760
2017-03-22T12:02:48.495Z,6564
2017-03-22T12:03:48.257Z,6360
2017-03-22T12:04:48.284Z,6492
2017-03-22T12:05:48.262Z,6668
2017-03-22T12:06:48.585Z,6624
2017-03-22T12:07:48.611Z,6768
2017-03-22T12:09:02.644Z,7348
2017-03-22T12:10:02.972Z,7708
2017-03-22T12:11:02.995Z,7784
2017-03-22T12:13:03.046Z,7972
2017-03-22T12:13:48.451Z,8112
2017-03-22T12:14:48.478Z,8464
2017-03-22T12:15:48.803Z,8424
2017-03-22T12:16:48.831Z,8312
2017-03-22T12:18:03.472Z,8356
2017-03-22T12:18:48.882Z,8372
2017-03-22T12:19:48.945Z,8328
2017-03-22T12:20:48.933Z,8324
2017-03-22T12:21:48.947Z,8272
2017-03-22T12:23:03.587Z,8188
2017-03-22T12:24:49.025Z,8368
2017-03-22T12:26:48.765Z,8348
2017-03-22T12:27:49.096Z,8436
2017-03-22T12:28:49.122Z,8448
2017-03-22T12:29:49.142Z,8436
2017-03-22T12:30:49.168Z,8556
2017-03-22T12:31:49.242Z,8500
2017-03-22T12:32:49.215Z,8784
2017-03-22T12:34:03.860Z,8732
2017-03-22T12:34:48.962Z,8576
2017-03-22T12:35:49.285Z,8696
2017-03-22T12:37:03.624Z,8472
2017-03-22T12:37:49.034Z,8492
2017-03-22T12:38:49.359Z,8732
2017-03-22T12:40:03.699Z,8620
2017-03-22T12:41:03.724Z,8504
2017-03-22T12:41:49.441Z,8512
2017-03-22T12:42:48.893Z,8328
2017-03-22T12:43:49.493Z,8240
2017-03-22T12:45:04.122Z,8264
2017-03-22T12:45:49.232Z,8204
2017-03-22T12:46:49.251Z,8128
2017-03-22T12:47:49.278Z,8088
2017-03-22T12:48:50.207Z,8052
2017-03-22T12:49:49.630Z,8024
2017-03-22T12:51:04.271Z,7920
2017-03-22T12:51:49.371Z,7892
2017-03-22T12:53:04.316Z,7896
2017-03-22T12:54:04.048Z,7896
2017-03-22T12:54:49.752Z,7932
2017-03-22T12:56:04.387Z,8012
2017-03-22T12:56:49.497Z,8024
2017-03-22T12:58:04.438Z,8080
2017-03-22T12:58:49.847Z,8144
2017-03-22T12:59:49.263Z,8164
2017-03-22T13:01:04.511Z,8116
2017-03-22T13:01:49.361Z,8112
2017-03-22T13:02:49.333Z,7960
2017-03-22T13:03:50.714Z,7924
2017-03-22T13:04:49.684Z,7912
2017-03-22T13:05:49.713Z,7872
2017-03-22T13:06:49.733Z,7804
2017-03-22T13:07:50.059Z,7788
2017-03-22T13:08:49.783Z,7724
2017-03-22T13:09:49.806Z,7628
2017-03-22T13:10:50.133Z,7568
2017-03-22T13:12:04.789Z,7540
2017-03-22T13:13:04.800Z,7420
2017-03-22T13:13:50.864Z,7444
2017-03-22T13:15:49.649Z,7348
2017-03-22T13:17:04.593Z,7348
2017-03-22T13:17:49.999Z,7404
2017-03-22T13:18:50.025Z,7408
2017-03-22T13:19:50.054Z,7436
2017-03-22T13:20:49.774Z,7500
2017-03-22T13:21:50.454Z,7552
2017-03-22T13:22:50.121Z,7588
2017-03-22T13:23:50.450Z,7564
2017-03-22T13:24:50.474Z,7544
2017-03-22T13:25:50.195Z,7516
2017-03-22T13:27:04.837Z,7304
2017-03-22T13:27:50.243Z,7252
2017-03-22T13:28:50.566Z,7328
2017-03-22T13:29:50.291Z,7192
2017-03-22T13:31:50.693Z,7088
2017-03-22T13:33:05.282Z,6892
2017-03-22T13:33:50.693Z,6892
2017-03-22T13:34:50.720Z,6704
2017-03-22T13:35:50.739Z,6452
2017-03-22T13:36:50.764Z,6340
2017-03-22T13:37:50.787Z,6392
2017-03-22T13:38:50.810Z,6396
2017-03-22T13:39:50.534Z,6332
2017-03-22T13:40:50.861Z,6324
2017-03-22T13:41:50.889Z,6188
2017-03-22T13:42:50.909Z,6176
2017-03-22T13:43:50.931Z,6084
2017-03-22T13:45:05.268Z,6092
2017-03-22T13:45:50.983Z,5912
2017-03-22T13:46:51.004Z,6008
2017-03-22T13:48:05.340Z,6188
2017-03-22T13:48:51.051Z,6200
2017-03-22T13:49:51.074Z,6308
2017-03-22T13:50:51.097Z,6160
2017-03-22T13:51:51.119Z,6244
2017-03-22T13:52:51.146Z,6448
2017-03-22T13:53:51.176Z,6584
2017-03-22T13:54:50.892Z,6640
2017-03-22T13:55:51.219Z,6232
2017-03-22T13:56:51.247Z,6600
2017-03-22T13:57:51.277Z,6620
2017-03-22T13:58:51.292Z,6632
2017-03-22T13:59:51.009Z,6540
2017-03-22T14:00:51.039Z,6604
2017-03-22T14:02:51.397Z,6540
2017-03-22T14:03:51.412Z,6628
2017-03-22T14:04:51.434Z,6628
2017-03-22T14:05:51.458Z,6752
2017-03-22T14:06:51.486Z,6592
2017-03-22T14:07:51.504Z,6644
2017-03-22T14:08:51.224Z,6600
2017-03-22T14:09:51.574Z,6536
2017-03-22T14:10:51.581Z,6536
2017-03-22T14:11:51.295Z,6428
2017-03-22T14:12:51.320Z,6468
2017-03-22T14:13:51.041Z,6412
2017-03-22T14:14:51.063Z,6368
2017-03-22T14:16:06.009Z,6384
2017-03-22T14:16:51.722Z,6388
2017-03-22T14:17:51.742Z,6436
2017-03-22T14:18:51.768Z,5840
2017-03-22T14:20:06.155Z,6056
2017-03-22T14:20:51.514Z,5980
2017-03-22T14:21:51.537Z,5520
2017-03-22T14:22:51.554Z,5428
2017-03-22T14:23:51.582Z,5408
2017-03-22T14:24:51.605Z,5440
2017-03-22T14:25:51.933Z,5476
2017-03-22T14:26:51.653Z,5504
2017-03-22T14:27:51.674Z,5544
2017-03-22T14:28:52.055Z,5568
2017-03-22T14:29:51.723Z,5612
2017-03-22T14:30:51.838Z,5716
2017-03-22T14:31:52.074Z,5852